createdAt,value
2016-06-15T00:00:40.549Z,985.99
2016-06-15T00:01:40.600Z,985.96
2016-06-15T00:02:40.635Z,986
2016-06-15T00:03:40.700Z,986.05
2016-06-15T00:04:40.719Z,986.03
2016-06-15T00:05:40.753Z,986.03
2016-06-15T00:06:40.803Z,986.06
2016-06-15T00:07:40.837Z,986.06
2016-06-15T00:08:40.918Z,986.08
2016-06-15T00:09:40.921Z,986.08
2016-06-15T00:10:40.972Z,986.06
2016-06-15T00:11:41.005Z,986.07
2016-06-15T00:12:41.041Z,986.05
2016-06-15T00:13:41.089Z,986.08
2016-06-15T00:14:41.125Z,986.04
2016-06-15T00:15:41.190Z,986.04
2016-06-15T00:16:41.209Z,986.06
2016-06-15T00:17:41.243Z,986.02
2016-06-15T00:18:41.293Z,986.05
2016-06-15T00:19:41.327Z,986.04
2016-06-15T00:20:41.361Z,986.06
2016-06-15T00:21:41.412Z,986.06
2016-06-15T00:22:41.446Z,986.07
2016-06-15T00:23:41.496Z,986.05
2016-06-15T00:24:41.530Z,986.06
2016-06-15T00:25:41.581Z,986.04
2016-06-15T00:26:41.645Z,986.04
2016-06-15T00:27:41.665Z,985.99
2016-06-15T00:28:41.698Z,986.04
2016-06-15T00:29:41.733Z,986.02
2016-06-15T00:30:41.782Z,986.04
2016-06-15T00:31:41.833Z,985.97
2016-06-15T00:32:41.867Z,985.98
2016-06-15T00:33:41.933Z,985.98
2016-06-15T00:34:42.420Z,985.98
2016-06-15T00:35:41.986Z,985.97
2016-06-15T00:36:42.021Z,985.9
2016-06-15T00:37:42.070Z,985.92
2016-06-15T00:38:42.120Z,985.92
2016-06-15T00:39:42.155Z,985.94
2016-06-15T00:40:42.189Z,985.9
2016-06-15T00:41:42.222Z,985.9
2016-06-15T00:42:42.273Z,985.89
2016-06-15T00:43:42.307Z,985.93
2016-06-15T00:44:42.373Z,985.93
2016-06-15T00:45:42.392Z,985.93
2016-06-15T00:46:42.426Z,985.93
2016-06-15T00:47:42.476Z,985.92
2016-06-15T00:48:42.510Z,985.86
2016-06-15T00:49:42.575Z,985.86
2016-06-15T00:50:42.625Z,985.84
2016-06-15T00:51:42.629Z,985.83
2016-06-15T00:52:42.678Z,985.83
2016-06-15T00:53:42.713Z,985.82
2016-06-15T00:54:42.763Z,985.8
2016-06-15T00:55:42.813Z,985.79
2016-06-15T00:56:42.832Z,985.8
2016-06-15T00:57:42.882Z,985.8
2016-06-15T00:58:42.947Z,985.82
2016-06-15T00:59:43.033Z,985.77
2016-06-15T01:00:43.104Z,985.77
2016-06-15T01:01:43.190Z,985.78
2016-06-15T01:02:43.260Z,985.73
2016-06-15T01:03:43.312Z,985.72
2016-06-15T01:04:43.375Z,985.73
2016-06-15T01:05:43.423Z,985.74
2016-06-15T01:06:43.470Z,985.73
2016-06-15T01:07:43.533Z,985.71
2016-06-15T01:08:43.573Z,985.69
2016-06-15T01:09:43.629Z,985.69
2016-06-15T01:10:43.667Z,985.64
2016-06-15T01:11:43.707Z,985.7
2016-06-15T01:12:43.761Z,985.72
2016-06-15T01:13:43.798Z,985.7
2016-06-15T01:14:43.849Z,985.69
2016-06-15T01:15:43.886Z,985.66
2016-06-15T01:16:43.937Z,985.7
2016-06-15T01:17:43.973Z,985.71
2016-06-15T01:18:44.009Z,985.71
2016-06-15T01:19:44.059Z,985.67
2016-06-15T01:20:44.094Z,985.7
2016-06-15T01:21:44.145Z,985.69
2016-06-15T01:22:44.180Z,985.73
2016-06-15T01:23:44.214Z,985.72
2016-06-15T01:24:44.264Z,985.66
2016-06-15T01:25:44.330Z,985.72
2016-06-15T01:26:44.348Z,985.72
2016-06-15T01:27:44.384Z,985.7
2016-06-15T01:28:44.433Z,985.74
2016-06-15T01:29:44.468Z,985.74
2016-06-15T01:30:44.501Z,985.78
2016-06-15T01:31:44.552Z,985.79
2016-06-15T01:32:44.585Z,985.81
2016-06-15T01:33:44.620Z,985.8
2016-06-15T01:34:44.669Z,985.78
2016-06-15T01:35:44.705Z,985.79
2016-06-15T01:36:44.753Z,985.82
2016-06-15T01:37:44.789Z,985.81
2016-06-15T01:38:44.823Z,985.78
2016-06-15T01:39:44.873Z,985.78
2016-06-15T01:40:44.907Z,985.79
2016-06-15T01:41:44.957Z,985.79
2016-06-15T01:42:44.991Z,985.81
2016-06-15T01:43:45.025Z,985.8
2016-06-15T01:44:45.076Z,985.78
2016-06-15T01:45:45.110Z,985.8
2016-06-15T01:46:45.159Z,985.79
2016-06-15T01:47:45.209Z,985.81
2016-06-15T01:48:45.229Z,985.76
2016-06-15T01:49:45.279Z,985.8
2016-06-15T01:50:45.313Z,985.81
2016-06-15T01:51:45.347Z,985.8
2016-06-15T01:52:45.397Z,985.8
2016-06-15T01:53:45.431Z,985.79
2016-06-15T01:54:45.481Z,985.81
2016-06-15T01:55:45.516Z,985.81
2016-06-15T01:56:45.565Z,985.86
2016-06-15T01:57:45.600Z,985.83
2016-06-15T01:58:45.665Z,985.82
2016-06-15T01:59:45.685Z,985.85
2016-06-15T02:00:45.719Z,985.87
2016-06-15T02:01:45.753Z,985.85
2016-06-15T02:02:45.803Z,985.89
2016-06-15T02:03:45.837Z,985.9
2016-06-15T02:04:45.872Z,985.91
2016-06-15T02:05:45.922Z,985.93
2016-06-15T02:06:45.971Z,985.95
2016-06-15T02:07:46.006Z,986
2016-06-15T02:08:46.040Z,986
2016-06-15T02:09:46.105Z,986
2016-06-15T02:10:46.124Z,985.96
2016-06-15T02:11:46.159Z,985.95
2016-06-15T02:12:46.209Z,985.97
2016-06-15T02:13:46.275Z,986.03
2016-06-15T02:14:46.293Z,986.01
2016-06-15T02:15:46.328Z,985.98
2016-06-15T02:16:46.377Z,985.97
2016-06-15T02:17:46.412Z,985.98
2016-06-15T02:18:46.446Z,985.93
2016-06-15T02:19:46.496Z,985.93
2016-06-15T02:20:46.530Z,985.97
2016-06-15T02:21:46.580Z,985.95
2016-06-15T02:22:46.615Z,985.98
2016-06-15T02:23:46.648Z,985.99
2016-06-15T02:24:46.840Z,986.01
2016-06-15T02:25:46.733Z,985.98
2016-06-15T02:26:46.767Z,986.01
2016-06-15T02:27:46.817Z,986.05
2016-06-15T02:28:46.852Z,985.99
2016-06-15T02:29:46.901Z,986.02
2016-06-15T02:30:46.936Z,986
2016-06-15T02:31:46.969Z,985.94
2016-06-15T02:32:47.020Z,985.98
2016-06-15T02:33:47.054Z,985.98
2016-06-15T02:34:47.104Z,985.99
2016-06-15T02:35:47.154Z,985.99
2016-06-15T02:36:47.188Z,985.97
2016-06-15T02:37:47.223Z,985.97
2016-06-15T02:38:47.257Z,985.96
2016-06-15T02:39:47.307Z,985.96
2016-06-15T02:40:47.341Z,985.95
2016-06-15T02:41:47.392Z,985.94
2016-06-15T02:42:47.441Z,985.92
2016-06-15T02:43:47.460Z,985.94
2016-06-15T02:44:47.510Z,985.91
2016-06-15T02:45:47.545Z,985.91
2016-06-15T02:46:47.610Z,985.93
2016-06-15T02:47:47.629Z,985.93
2016-06-15T02:48:47.663Z,985.91
2016-06-15T02:49:47.713Z,985.88
2016-06-15T02:50:47.748Z,985.94
2016-06-15T02:51:47.797Z,985.88
2016-06-15T02:52:47.832Z,985.92
2016-06-15T02:53:47.865Z,985.93
2016-06-15T02:54:47.916Z,985.89
2016-06-15T02:55:47.951Z,985.87
2016-06-15T02:56:47.985Z,985.86
2016-06-15T02:57:48.065Z,985.87
2016-06-15T02:58:48.069Z,985.86
2016-06-15T02:59:48.118Z,985.85
2016-06-15T03:00:48.153Z,985.9
2016-06-15T03:01:48.187Z,985.88
2016-06-15T03:02:48.238Z,985.87
2016-06-15T03:03:48.271Z,985.89
2016-06-15T03:04:48.321Z,985.92
2016-06-15T03:05:49.074Z,985.9
2016-06-15T03:06:48.391Z,985.89
2016-06-15T03:07:48.441Z,985.9
2016-06-15T03:08:48.475Z,985.89
2016-06-15T03:09:48.525Z,985.89
2016-06-15T03:10:48.558Z,985.92
2016-06-15T03:11:48.593Z,985.87
2016-06-15T03:12:48.643Z,985.92
2016-06-15T03:13:48.677Z,985.89
2016-06-15T03:14:48.712Z,985.92
2016-06-15T03:15:48.777Z,985.88
2016-06-15T03:16:48.796Z,985.93
2016-06-15T03:17:48.847Z,985.96
2016-06-15T03:18:48.880Z,985.91
2016-06-15T03:19:48.930Z,985.91
2016-06-15T03:20:48.964Z,985.95
2016-06-15T03:21:48.998Z,985.89
2016-06-15T03:22:49.048Z,985.9
2016-06-15T03:23:49.083Z,985.88
2016-06-15T03:24:49.117Z,985.9
2016-06-15T03:25:49.168Z,985.91
2016-06-15T03:26:49.202Z,985.92
2016-06-15T03:27:49.252Z,985.93
2016-06-15T03:28:49.286Z,985.87
2016-06-15T03:29:49.320Z,985.9
2016-06-15T03:30:49.370Z,985.9
2016-06-15T03:31:49.404Z,985.88
2016-06-15T03:32:49.454Z,985.89
2016-06-15T03:33:49.488Z,985.87
2016-06-15T03:34:49.539Z,985.91
2016-06-15T03:35:49.573Z,985.86
2016-06-15T03:36:49.608Z,985.86
2016-06-15T03:37:49.658Z,985.87
2016-06-15T03:38:49.692Z,985.82
2016-06-15T03:39:49.726Z,985.83
2016-06-15T03:40:49.776Z,985.86
2016-06-15T03:41:49.810Z,985.84
2016-06-15T03:42:49.860Z,985.79
2016-06-15T03:43:49.894Z,985.85
2016-06-15T03:44:49.929Z,985.88
2016-06-15T03:45:49.980Z,985.81
2016-06-15T03:46:50.013Z,985.79
2016-06-15T03:47:50.064Z,985.8
2016-06-15T03:48:50.097Z,985.8
2016-06-15T03:49:50.132Z,985.82
2016-06-15T03:50:50.181Z,985.82
2016-06-15T03:51:50.248Z,985.82
2016-06-15T03:52:50.250Z,985.81
2016-06-15T03:53:50.300Z,985.82
2016-06-15T03:54:50.334Z,985.78
2016-06-15T03:55:50.385Z,985.78
2016-06-15T03:56:50.419Z,985.78
2016-06-15T03:57:50.469Z,985.81
2016-06-15T03:58:50.520Z,985.76
2016-06-15T03:59:50.537Z,985.77
2016-06-15T04:00:50.587Z,985.74
2016-06-15T04:01:50.638Z,985.77
2016-06-15T04:02:50.671Z,985.77
2016-06-15T04:03:50.706Z,985.75
2016-06-15T04:04:50.740Z,985.74
2016-06-15T04:05:50.791Z,985.76
2016-06-15T04:06:50.825Z,985.81
2016-06-15T04:07:50.875Z,985.79
2016-06-15T04:08:50.909Z,985.74
2016-06-15T04:09:50.943Z,985.81
2016-06-15T04:10:50.993Z,985.76
2016-06-15T04:11:51.027Z,985.76
2016-06-15T04:12:51.155Z,985.78
2016-06-15T04:13:51.111Z,985.8
2016-06-15T04:14:51.146Z,985.78
2016-06-15T04:15:51.197Z,985.8
2016-06-15T04:16:51.230Z,985.78
2016-06-15T04:17:51.281Z,985.79
2016-06-15T04:18:51.315Z,985.79
2016-06-15T04:19:51.365Z,985.81
2016-06-15T04:20:51.399Z,985.77
2016-06-15T04:21:51.433Z,985.78
2016-06-15T04:22:51.483Z,985.81
2016-06-15T04:23:51.533Z,985.78
2016-06-15T04:24:51.553Z,985.83
2016-06-15T04:25:51.602Z,985.82
2016-06-15T04:26:51.637Z,985.82
2016-06-15T04:27:51.873Z,985.83
2016-06-15T04:28:51.862Z,985.83
2016-06-15T04:29:51.755Z,985.83
2016-06-15T04:30:51.821Z,985.85
2016-06-15T04:31:51.917Z,985.83
2016-06-15T04:32:51.905Z,985.85
2016-06-15T04:33:51.923Z,985.86
2016-06-15T04:34:52.020Z,985.83
2016-06-15T04:35:52.070Z,985.84
2016-06-15T04:36:52.042Z,985.83
2016-06-15T04:37:52.170Z,985.81
2016-06-15T04:38:52.126Z,985.86
2016-06-15T04:39:52.160Z,985.85
2016-06-15T04:40:52.211Z,985.86
2016-06-15T04:41:52.244Z,985.84
2016-06-15T04:42:52.294Z,985.86
2016-06-15T04:43:52.328Z,985.87
2016-06-15T04:44:52.378Z,985.85
2016-06-15T04:45:52.413Z,985.85
2016-06-15T04:46:52.448Z,985.84
2016-06-15T04:47:52.497Z,985.85
2016-06-15T04:48:52.563Z,985.86
2016-06-15T04:49:52.566Z,985.84
2016-06-15T04:50:52.616Z,985.86
2016-06-15T04:51:52.666Z,985.86
2016-06-15T04:52:52.700Z,985.87
2016-06-15T04:53:52.734Z,985.86
2016-06-15T04:54:52.784Z,985.84
2016-06-15T04:55:52.850Z,985.87
2016-06-15T04:56:52.868Z,985.9
2016-06-15T04:57:52.904Z,985.9
2016-06-15T04:58:52.937Z,985.91
2016-06-15T04:59:52.988Z,985.91
2016-06-15T05:00:53.021Z,985.96
2016-06-15T05:01:53.072Z,985.96
2016-06-15T05:02:53.169Z,985.92
2016-06-15T05:03:53.140Z,985.89
2016-06-15T05:04:53.190Z,985.92
2016-06-15T05:05:53.225Z,985.92
2016-06-15T05:06:53.306Z,985.96
2016-06-15T05:07:53.309Z,985.94
2016-06-15T05:08:53.360Z,985.94
2016-06-15T05:09:53.393Z,985.97
2016-06-15T05:10:53.428Z,985.96
2016-06-15T05:11:53.477Z,985.97
2016-06-15T05:12:53.512Z,985.98
2016-06-15T05:13:53.562Z,985.96
2016-06-15T05:14:53.596Z,985.96
2016-06-15T05:15:53.646Z,986.02
2016-06-15T05:16:53.680Z,986
2016-06-15T05:17:53.762Z,986.02
2016-06-15T05:18:53.765Z,986.02
2016-06-15T05:19:53.800Z,986.02
2016-06-15T05:20:54.083Z,986.07
2016-06-15T05:21:53.884Z,986.05
2016-06-15T05:22:53.980Z,986.04
2016-06-15T05:23:53.968Z,986.08
2016-06-15T05:24:54.017Z,986.12
2016-06-15T05:25:54.052Z,986.11
2016-06-15T05:26:54.085Z,986.13
2016-06-15T05:27:54.136Z,986.12
2016-06-15T05:28:54.202Z,986.15
2016-06-15T05:29:54.986Z,986.11
2016-06-15T05:30:54.255Z,986.12
2016-06-15T05:31:54.289Z,986.12
2016-06-15T05:32:54.339Z,986.13
2016-06-15T05:33:54.389Z,986.18
2016-06-15T05:34:54.423Z,986.14
2016-06-15T05:35:54.880Z,986.19
2016-06-15T05:36:54.648Z,986.18
2016-06-15T05:37:54.541Z,986.15
2016-06-15T05:38:54.576Z,986.19
2016-06-15T05:39:54.625Z,986.15
2016-06-15T05:40:54.660Z,986.21
2016-06-15T05:41:54.711Z,986.2
2016-06-15T05:42:54.745Z,986.22
2016-06-15T05:43:54.825Z,986.17
2016-06-15T05:44:54.829Z,986.24
2016-06-15T05:45:54.879Z,986.22
2016-06-15T05:46:54.914Z,986.24
2016-06-15T05:47:54.994Z,986.29
2016-06-15T05:48:54.998Z,986.26
2016-06-15T05:49:55.031Z,986.27
2016-06-15T05:50:55.488Z,986.29
2016-06-15T05:51:55.116Z,986.28
2016-06-15T05:52:55.166Z,986.29
2016-06-15T05:53:55.200Z,986.3
2016-06-15T05:54:55.235Z,986.35
2016-06-15T05:55:55.299Z,986.31
2016-06-15T05:56:55.319Z,986.35
2016-06-15T05:57:55.463Z,986.34
2016-06-15T05:58:55.403Z,986.36
2016-06-15T05:59:55.437Z,986.4
2016-06-15T06:00:55.487Z,986.39
2016-06-15T06:01:55.522Z,986.41
2016-06-15T06:02:55.557Z,986.4
2016-06-15T06:03:55.606Z,986.41
2016-06-15T06:04:55.641Z,986.44
2016-06-15T06:05:55.799Z,986.43
2016-06-15T06:06:55.787Z,986.43
2016-06-15T06:07:55.775Z,986.42
2016-06-15T06:08:55.809Z,986.45
2016-06-15T06:09:55.842Z,986.47
2016-06-15T06:10:55.925Z,986.47
2016-06-15T06:11:55.959Z,986.49
2016-06-15T06:12:55.977Z,986.5
2016-06-15T06:13:56.013Z,986.54
2016-06-15T06:14:56.077Z,986.51
2016-06-15T06:15:56.675Z,986.53
2016-06-15T06:16:56.286Z,986.52
2016-06-15T06:17:56.306Z,986.56
2016-06-15T06:18:56.214Z,986.58
2016-06-15T06:19:56.265Z,986.6
2016-06-15T06:20:56.612Z,986.62
2016-06-15T06:21:56.630Z,986.57
2016-06-15T06:22:56.430Z,986.67
2016-06-15T06:23:56.668Z,986.64
2016-06-15T06:24:56.468Z,986.63
2016-06-15T06:25:56.658Z,986.66
2016-06-15T06:26:56.552Z,986.68
2016-06-15T06:27:56.586Z,986.62
2016-06-15T06:28:56.698Z,986.64
2016-06-15T06:29:56.671Z,986.71
2016-06-15T06:30:57.079Z,986.69
2016-06-15T06:31:56.755Z,986.69
2016-06-15T06:32:56.788Z,986.73
2016-06-15T06:33:56.855Z,986.7
2016-06-15T06:34:56.874Z,986.7
2016-06-15T06:35:57.173Z,986.71
2016-06-15T06:36:57.098Z,986.74
2016-06-15T06:37:56.991Z,986.78
2016-06-15T06:38:57.042Z,986.76
2016-06-15T06:39:57.076Z,986.76
2016-06-15T06:40:57.110Z,986.75
2016-06-15T06:41:57.160Z,986.76
2016-06-15T06:42:57.194Z,986.77
2016-06-15T06:43:57.260Z,986.76
2016-06-15T06:44:57.279Z,986.8
2016-06-15T06:45:57.314Z,986.79
2016-06-15T06:46:57.550Z,986.85
2016-06-15T06:47:57.398Z,986.79
2016-06-15T06:48:57.509Z,986.86
2016-06-15T06:49:57.482Z,986.82
2016-06-15T06:50:57.594Z,986.88
2016-06-15T06:51:57.629Z,986.85
2016-06-15T06:52:57.600Z,986.83
2016-06-15T06:53:57.713Z,986.86
2016-06-15T06:54:57.747Z,986.86
2016-06-15T06:55:57.735Z,986.84
2016-06-15T06:56:57.769Z,986.84
2016-06-15T06:57:57.804Z,986.88
2016-06-15T06:58:57.853Z,986.85
2016-06-15T06:59:57.904Z,986.89
2016-06-15T07:00:57.938Z,986.88
2016-06-15T07:01:57.972Z,986.89
2016-06-15T07:02:58.022Z,986.89
2016-06-15T07:03:58.213Z,986.89
2016-06-15T07:04:58.106Z,986.91
2016-06-15T07:05:58.281Z,986.92
2016-06-15T07:06:58.190Z,986.92
2016-06-15T07:07:58.225Z,986.97
2016-06-15T07:08:58.384Z,986.9
2016-06-15T07:09:58.434Z,986.94
2016-06-15T07:10:58.390Z,986.94
2016-06-15T07:11:58.425Z,986.98
2016-06-15T07:12:58.552Z,986.99
2016-06-15T07:13:58.478Z,986.99
2016-06-15T07:14:58.527Z,987.03
2016-06-15T07:15:58.546Z,987.03
2016-06-15T07:16:58.596Z,987.03
2016-06-15T07:18:01.115Z,987.04
2016-06-15T07:19:00.743Z,987.03
2016-06-15T07:19:58.715Z,986.98
2016-06-15T07:20:58.765Z,987.02
2016-06-15T07:21:59.144Z,987.01
2016-06-15T07:22:58.833Z,986.98
2016-06-15T07:23:58.883Z,986.97
2016-06-15T07:24:58.917Z,987.06
2016-06-15T07:25:58.968Z,987.02
2016-06-15T07:26:59.001Z,987.02
2016-06-15T07:27:59.037Z,987.04
2016-06-15T07:28:59.086Z,987.06
2016-06-15T07:29:59.121Z,987.03
2016-06-15T07:30:59.186Z,987.03
2016-06-15T07:31:59.205Z,987.03
2016-06-15T07:32:59.255Z,987.1
2016-06-15T07:33:59.289Z,987.05
2016-06-15T07:34:59.339Z,987.08
2016-06-15T07:35:59.373Z,987.05
2016-06-15T07:36:59.454Z,987.06
2016-06-15T07:37:59.457Z,987.05
2016-06-15T07:38:59.507Z,987.05
2016-06-15T07:39:59.541Z,987.06
2016-06-15T07:40:59.592Z,987.07
2016-06-15T07:41:59.626Z,987.07
2016-06-15T07:42:59.660Z,987.09
2016-06-15T07:43:59.711Z,987.08
2016-06-15T07:44:59.745Z,987.09
2016-06-15T07:45:59.795Z,987.08
2016-06-15T07:46:59.954Z,987.11
2016-06-15T07:47:59.926Z,987.13
2016-06-15T07:48:59.913Z,987.11
2016-06-15T07:49:59.947Z,987.11
2016-06-15T07:51:00.122Z,987.14
2016-06-15T07:52:00.250Z,987.06
2016-06-15T07:53:00.098Z,987.07
2016-06-15T07:54:00.116Z,987.09
2016-06-15T07:55:00.322Z,987.08
2016-06-15T07:56:00.201Z,987.06
2016-06-15T07:57:00.235Z,987.09
2016-06-15T07:58:00.285Z,987.07
2016-06-15T07:59:00.349Z,987.1
2016-06-15T08:00:00.369Z,987.13
2016-06-15T08:01:00.403Z,987.14
2016-06-15T08:02:00.453Z,987.16
2016-06-15T08:03:00.487Z,987.16
2016-06-15T08:04:00.537Z,987.13
2016-06-15T08:05:00.571Z,987.15
2016-06-15T08:06:00.606Z,987.16
2016-06-15T08:07:00.719Z,987.15
2016-06-15T08:08:00.690Z,987.17
2016-06-15T08:09:01.147Z,987.18
2016-06-15T08:10:00.791Z,987.17
2016-06-15T08:11:00.824Z,987.2
2016-06-15T08:12:00.859Z,987.18
2016-06-15T08:13:01.252Z,987.21
2016-06-15T08:14:00.943Z,987.19
2016-06-15T08:15:01.102Z,987.2
2016-06-15T08:16:01.027Z,987.21
2016-06-15T08:17:01.078Z,987.2
2016-06-15T08:18:01.111Z,987.18
2016-06-15T08:19:01.146Z,987.23
2016-06-15T08:20:01.196Z,987.23
2016-06-15T08:21:01.245Z,987.21
2016-06-15T08:22:01.281Z,987.26
2016-06-15T08:23:01.314Z,987.21
2016-06-15T08:24:01.365Z,987.25
2016-06-15T08:25:01.399Z,987.23
2016-06-15T08:26:01.449Z,987.2
2016-06-15T08:27:01.499Z,987.23
2016-06-15T08:28:01.611Z,987.21
2016-06-15T08:29:01.567Z,987.18
2016-06-15T08:30:01.742Z,987.22
2016-06-15T08:31:01.651Z,987.23
2016-06-15T08:32:01.701Z,987.2
2016-06-15T08:33:01.737Z,987.2
2016-06-15T08:34:01.770Z,987.18
2016-06-15T08:35:01.821Z,987.25
2016-06-15T08:36:01.855Z,987.17
2016-06-15T08:37:01.967Z,987.21
2016-06-15T08:38:01.939Z,987.23
2016-06-15T08:39:01.988Z,987.22
2016-06-15T08:40:02.023Z,987.23
2016-06-15T08:41:02.073Z,987.23
2016-06-15T08:42:02.154Z,987.24
2016-06-15T08:43:02.157Z,987.2
2016-06-15T08:44:02.191Z,987.25
2016-06-15T08:45:02.241Z,987.22
2016-06-15T08:46:02.277Z,987.25
2016-06-15T08:47:02.325Z,987.25
2016-06-15T08:48:02.361Z,987.28
2016-06-15T08:49:02.410Z,987.26
2016-06-15T08:50:02.444Z,987.27
2016-06-15T08:51:02.479Z,987.25
2016-06-15T08:52:02.809Z,987.27
2016-06-15T08:53:02.563Z,987.24
2016-06-15T08:54:02.612Z,987.31
2016-06-15T08:55:02.647Z,987.28
2016-06-15T08:56:02.697Z,987.28
2016-06-15T08:57:02.747Z,987.31
2016-06-15T08:58:02.781Z,987.3
2016-06-15T08:59:02.847Z,987.31
2016-06-15T09:00:02.944Z,987.31
2016-06-15T09:01:02.900Z,987.27
2016-06-15T09:02:02.951Z,987.29
2016-06-15T09:03:02.985Z,987.32
2016-06-15T09:04:03.050Z,987.3
2016-06-15T09:05:03.069Z,987.31
2016-06-15T09:06:03.119Z,987.33
2016-06-15T09:07:03.747Z,987.33
2016-06-15T09:08:03.500Z,987.36
2016-06-15T09:09:03.254Z,987.36
2016-06-15T09:10:03.537Z,987.33
2016-06-15T09:11:03.321Z,987.37
2016-06-15T09:12:03.372Z,987.35
2016-06-15T09:13:04.817Z,987.37
2016-06-15T09:14:03.434Z,987.39
2016-06-15T09:15:03.498Z,987.41
2016-06-15T09:16:04.659Z,987.39
2016-06-15T09:17:03.583Z,987.44
2016-06-15T09:18:03.650Z,987.39
2016-06-15T09:19:03.668Z,987.45
2016-06-15T09:20:03.702Z,987.46
2016-06-15T09:21:03.768Z,987.47
2016-06-15T09:22:03.864Z,987.43
2016-06-15T09:23:03.837Z,987.48
2016-06-15T09:24:03.995Z,987.46
2016-06-15T09:25:04.062Z,987.5
2016-06-15T09:26:04.251Z,987.48
2016-06-15T09:27:04.005Z,987.48
2016-06-15T09:28:04.055Z,987.46
2016-06-15T09:29:04.152Z,987.5
2016-06-15T09:30:04.211Z,987.51
2016-06-15T09:31:04.511Z,987.5
2016-06-15T09:32:04.218Z,987.51
2016-06-15T09:33:04.362Z,987.47
2016-06-15T09:34:04.317Z,987.5
2016-06-15T09:35:04.352Z,987.46
2016-06-15T09:36:04.699Z,987.51
2016-06-15T09:37:04.639Z,987.45
2016-06-15T09:38:04.517Z,987.49
2016-06-15T09:39:04.926Z,987.5
2016-06-15T09:40:04.758Z,987.47
2016-06-15T09:41:04.886Z,987.51
2016-06-15T09:42:04.670Z,987.52
2016-06-15T09:43:04.798Z,987.53
2016-06-15T09:44:05.051Z,987.5
2016-06-15T09:45:05.165Z,987.51
2016-06-15T09:46:05.151Z,987.53
2016-06-15T09:47:08.560Z,987.55
2016-06-15T09:48:05.048Z,987.55
2016-06-15T09:49:05.099Z,987.53
2016-06-15T09:50:04.976Z,987.56
2016-06-15T09:51:05.073Z,987.56
2016-06-15T09:52:05.295Z,987.52
2016-06-15T09:53:05.579Z,987.58
2016-06-15T09:54:05.300Z,987.6
2016-06-15T09:55:05.492Z,987.6
2016-06-15T09:56:05.245Z,987.58
2016-06-15T09:57:05.451Z,987.6
2016-06-15T09:58:05.329Z,987.58
2016-06-15T09:59:05.364Z,987.62
2016-06-15T10:00:05.444Z,987.57
2016-06-15T10:01:05.447Z,987.58
2016-06-15T10:02:05.481Z,987.57
2016-06-15T10:03:05.547Z,987.56
2016-06-15T10:04:05.834Z,987.55
2016-06-15T10:05:05.846Z,987.52
2016-06-15T10:06:06.124Z,987.53
2016-06-15T10:07:05.918Z,987.44
2016-06-15T10:08:05.928Z,987.44
2016-06-15T10:09:06.069Z,987.37
2016-06-15T10:10:06.227Z,987.39
2016-06-15T10:11:06.118Z,987.36
2016-06-15T10:12:06.293Z,987.37
2016-06-15T10:13:06.232Z,987.41
2016-06-15T10:14:06.277Z,987.35
2016-06-15T10:15:07.113Z,987.36
2016-06-15T10:16:06.371Z,987.34
2016-06-15T10:17:06.692Z,987.35
2016-06-15T10:18:19.919Z,987.35
2016-06-15T10:19:06.989Z,987.31
2016-06-15T10:20:06.790Z,987.33
2016-06-15T10:21:06.624Z,987.28
2016-06-15T10:22:07.394Z,987.25
2016-06-15T10:23:07.102Z,987.26
2016-06-15T10:24:07.013Z,987.25
2016-06-15T10:25:07.923Z,987.28
2016-06-15T10:26:06.833Z,987.25
2016-06-15T10:27:07.069Z,987.26
2016-06-15T10:28:07.058Z,987.3
2016-06-15T10:29:07.124Z,987.35
2016-06-15T10:30:07.127Z,987.37
2016-06-15T10:31:07.318Z,987.38
2016-06-15T10:32:10.494Z,987.42
2016-06-15T10:33:07.153Z,987.42
2016-06-15T10:34:07.454Z,987.42
2016-06-15T10:35:07.238Z,987.44
2016-06-15T10:36:09.975Z,987.41
2016-06-15T10:37:11.979Z,987.41
2016-06-15T10:38:12.872Z,987.38
2016-06-15T10:39:21.172Z,987.31
2016-06-15T10:40:26.442Z,987.31
2016-06-15T10:41:30.866Z,987.32
2016-06-15T10:42:40.635Z,987.32
2016-06-15T10:43:34.341Z,987.34
2016-06-15T10:44:34.391Z,987.28
2016-06-15T10:45:36.738Z,987.28
2016-06-15T10:46:38.742Z,987.27
2016-06-15T10:47:52.259Z,987.29
2016-06-15T10:49:20.454Z,987.26
2016-06-15T10:50:24.191Z,987.28
2016-06-15T10:51:38.429Z,987.27
2016-06-15T10:53:15.075Z,987.28
2016-06-15T10:54:44.485Z,987.27
2016-06-15T10:55:47.472Z,987.3
2016-06-15T10:56:25.506Z,987.28
2016-06-15T10:57:25.556Z,987.3
2016-06-15T10:58:25.606Z,987.28
2016-06-15T10:59:25.641Z,987.3
2016-06-15T11:00:25.691Z,987.31
2016-06-15T11:01:25.741Z,987.26
2016-06-15T11:02:25.775Z,987.26
2016-06-15T11:03:25.966Z,987.25
2016-06-15T11:04:25.875Z,987.26
2016-06-15T11:05:25.909Z,987.28
2016-06-15T11:06:26.179Z,987.31
2016-06-15T11:07:26.009Z,987.34
2016-06-15T11:08:26.059Z,987.28
2016-06-15T11:09:26.094Z,987.3
2016-06-15T11:10:26.143Z,987.27
2016-06-15T11:11:26.194Z,987.25
2016-06-15T11:12:26.384Z,987.23
2016-06-15T11:13:26.309Z,987.25
2016-06-15T11:14:26.327Z,987.26
2016-06-15T11:15:26.378Z,987.24
2016-06-15T11:16:26.428Z,987.24
2016-06-15T11:17:26.462Z,987.22
2016-06-15T11:18:26.513Z,987.32
2016-06-15T11:19:26.562Z,987.38
2016-06-15T11:20:26.612Z,987.35
2016-06-15T11:21:26.647Z,987.31
2016-06-15T11:22:26.711Z,987.4
2016-06-15T11:23:26.745Z,987.27
2016-06-15T11:24:26.796Z,987.3
2016-06-15T11:25:26.830Z,987.4
2016-06-15T11:26:26.880Z,987.45
2016-06-15T11:27:26.962Z,987.5
2016-06-15T11:28:26.979Z,987.47
2016-06-15T11:29:27.030Z,987.46
2016-06-15T11:30:27.080Z,987.47
2016-06-15T11:31:27.145Z,987.41
2016-06-15T11:32:27.164Z,987.46
2016-06-15T11:33:27.230Z,987.45
2016-06-15T11:34:27.264Z,987.34
2016-06-15T11:35:28.658Z,987.3
2016-06-15T11:36:27.427Z,987.32
2016-06-15T11:37:27.413Z,987.26
2016-06-15T11:38:27.557Z,987.25
2016-06-15T11:39:27.529Z,987.22
2016-06-15T11:40:27.563Z,987.15
2016-06-15T11:41:27.614Z,987.12
2016-06-15T11:42:27.664Z,987.06
2016-06-15T11:43:27.714Z,987.12
2016-06-15T11:44:27.748Z,987.14
2016-06-15T11:45:27.798Z,987.15
2016-06-15T11:46:27.849Z,987.11
2016-06-15T11:47:27.898Z,987.13
2016-06-15T11:48:27.963Z,987.07
2016-06-15T11:49:27.998Z,987.11
2016-06-15T11:50:28.047Z,987.09
2016-06-15T11:51:28.098Z,987.09
2016-06-15T11:52:28.164Z,987.08
2016-06-15T11:53:28.198Z,987.1
2016-06-15T11:54:28.232Z,987.12
2016-06-15T11:55:28.312Z,987.17
2016-06-15T11:56:28.332Z,987.17
2016-06-15T11:57:28.382Z,987.18
2016-06-15T11:58:28.432Z,987.42
2016-06-15T11:59:28.498Z,987.49
2016-06-15T12:00:28.859Z,987.47
2016-06-15T12:01:28.567Z,987.4
2016-06-15T12:02:28.632Z,987.34
2016-06-15T12:03:28.698Z,987.28
2016-06-15T12:04:28.716Z,987.32
2016-06-15T12:05:28.765Z,987.28
2016-06-15T12:06:28.816Z,987.26
2016-06-15T12:07:29.099Z,987.3
2016-06-15T12:08:28.916Z,987.31
2016-06-15T12:09:28.966Z,987.32
2016-06-15T12:10:29.015Z,987.24
2016-06-15T12:11:29.081Z,986.96
2016-06-15T12:12:29.115Z,987.02
2016-06-15T12:13:29.478Z,987.33
2016-06-15T12:14:29.403Z,987.18
2016-06-15T12:15:29.266Z,987.24
2016-06-15T12:16:30.174Z,987.18
2016-06-15T12:17:29.380Z,987.11
2016-06-15T12:18:29.431Z,987.03
2016-06-15T12:19:29.481Z,986.91
2016-06-15T12:20:29.531Z,986.95
2016-06-15T12:21:29.581Z,986.93
2016-06-15T12:22:29.645Z,986.94
2016-06-15T12:23:29.680Z,987.05
2016-06-15T12:24:30.933Z,987.02
2016-06-15T12:25:29.796Z,987.08
2016-06-15T12:26:29.846Z,987.05
2016-06-15T12:27:29.896Z,987.12
2016-06-15T12:28:29.961Z,987.1
2016-06-15T12:29:29.996Z,986.93
2016-06-15T12:30:30.046Z,986.88
2016-06-15T12:31:30.940Z,986.86
2016-06-15T12:32:30.161Z,986.8
2016-06-15T12:33:30.195Z,986.83
2016-06-15T12:34:30.246Z,986.87